createdAt,value
2023-11-24T00:01:52.473Z,8.10
2023-11-24T00:04:19.384Z,8.10
2023-11-24T00:06:46.342Z,8.10
2023-11-24T00:09:13.261Z,8.00
2023-11-24T00:11:40.083Z,8.00
2023-11-24T00:14:06.940Z,8.00
2023-11-24T00:16:33.801Z,7.90
2023-11-24T00:19:00.529Z,7.90
2023-11-24T00:21:27.281Z,7.90
2023-11-24T00:23:54.050Z,7.90
2023-11-24T00:26:22.015Z,7.90
2023-11-24T00:28:48.816Z,7.90
2023-11-24T00:31:16.293Z,7.80
2023-11-24T00:33:45.096Z,7.90
2023-11-24T00:36:12.121Z,7.90
2023-11-24T00:38:38.956Z,7.90
2023-11-24T00:41:09.434Z,7.90
2023-11-24T00:43:39.531Z,8.00
2023-11-24T00:46:07.377Z,8.00
2023-11-24T00:48:34.900Z,8.00
2023-11-24T00:51:01.623Z,8.10
2023-11-24T00:53:28.367Z,8.10
2023-11-24T00:55:55.258Z,8.10
2023-11-24T00:58:21.923Z,8.10
2023-11-24T01:00:48.660Z,8.00
2023-11-24T01:03:16.626Z,8.00
2023-11-24T01:05:43.353Z,8.00
2023-11-24T01:08:11.179Z,8.00
2023-11-24T01:10:37.891Z,8.00
2023-11-24T01:13:04.870Z,8.00
2023-11-24T01:15:32.834Z,8.10
2023-11-24T01:18:00.378Z,8.10
2023-11-24T01:20:27.370Z,8.10
2023-11-24T01:22:54.050Z,8.10
2023-11-24T01:25:20.944Z,8.10
2023-11-24T01:27:48.306Z,8.10
2023-11-24T01:30:16.339Z,8.10
2023-11-24T01:32:43.086Z,8.10
2023-11-24T01:35:10.756Z,8.10
2023-11-24T01:37:37.578Z,8.10
2023-11-24T01:40:06.626Z,8.10
2023-11-24T01:42:39.527Z,8.10
2023-11-24T01:45:12.475Z,8.10
2023-11-24T01:47:39.716Z,8.20
2023-11-24T01:50:10.404Z,8.20
2023-11-24T01:52:37.765Z,8.20
2023-11-24T01:55:05.646Z,8.20
2023-11-24T01:57:33.501Z,8.20
2023-11-24T02:00:01.103Z,8.20
2023-11-24T02:02:30.200Z,8.10
2023-11-24T02:04:57.065Z,8.10
2023-11-24T02:07:24.281Z,8.00
2023-11-24T02:09:51.409Z,8.00
2023-11-24T02:12:18.241Z,8.00
2023-11-24T02:14:45.028Z,7.90
2023-11-24T02:17:11.855Z,7.80
2023-11-24T02:19:38.556Z,7.80
2023-11-24T02:22:05.242Z,7.70
2023-11-24T02:24:32.002Z,7.70
2023-11-24T02:27:00.271Z,7.60
2023-11-24T02:29:27.182Z,7.50
2023-11-24T02:31:55.047Z,7.40
2023-11-24T02:34:21.933Z,7.30
2023-11-24T02:36:48.809Z,7.20
2023-11-24T02:39:15.537Z,7.20
2023-11-24T02:41:42.814Z,7.20
2023-11-24T02:44:09.499Z,7.10
2023-11-24T02:46:36.273Z,7.10
2023-11-24T02:49:03.097Z,7.10
2023-11-24T02:51:29.897Z,7.10
2023-11-24T02:53:57.536Z,7.10
2023-11-24T02:56:24.353Z,7.10
2023-11-24T02:58:51.105Z,7.10
2023-11-24T03:01:17.931Z,7.10
2023-11-24T03:03:44.697Z,7.10
2023-11-24T03:06:14.007Z,7.20
2023-11-24T03:08:40.789Z,7.20
2023-11-24T03:11:08.085Z,7.20
2023-11-24T03:13:35.684Z,7.20
2023-11-24T03:16:09.460Z,7.20
2023-11-24T03:18:36.342Z,7.20
2023-11-24T03:21:03.060Z,7.20
2023-11-24T03:23:29.807Z,7.10
2023-11-24T03:25:57.177Z,7.20
2023-11-24T03:28:23.853Z,7.20
2023-11-24T03:30:51.309Z,7.20
2023-11-24T03:33:18.063Z,7.20
2023-11-24T03:35:44.742Z,7.20
2023-11-24T03:38:12.270Z,7.20
2023-11-24T03:40:38.933Z,7.20
2023-11-24T03:43:05.667Z,7.30
2023-11-24T03:45:32.427Z,7.20
2023-11-24T03:47:59.229Z,7.20
2023-11-24T03:50:26.593Z,7.20
2023-11-24T03:52:54.644Z,7.20
2023-11-24T03:55:21.554Z,7.20
2023-11-24T03:57:48.498Z,7.30
2023-11-24T04:00:15.383Z,7.20
2023-11-24T04:02:43.322Z,7.20
2023-11-24T04:05:14.404Z,7.20
2023-11-24T04:07:41.104Z,7.20
2023-11-24T04:10:08.466Z,7.20
2023-11-24T04:12:35.393Z,7.20
2023-11-24T04:15:02.643Z,7.20
2023-11-24T04:17:29.340Z,7.20
2023-11-24T04:19:56.058Z,7.10
2023-11-24T04:22:22.829Z,7.10
2023-11-24T04:24:49.639Z,7.10
2023-11-24T04:27:16.415Z,7.20
2023-11-24T04:29:43.088Z,7.10
2023-11-24T04:32:10.811Z,7.20
2023-11-24T04:34:37.701Z,7.20
2023-11-24T04:37:04.876Z,7.10
2023-11-24T04:39:31.698Z,7.10
2023-11-24T04:41:58.403Z,7.10
2023-11-24T04:44:25.059Z,7.10
2023-11-24T04:46:51.867Z,7.10
2023-11-24T04:49:18.919Z,7.10
2023-11-24T04:51:46.742Z,7.10
2023-11-24T04:54:13.603Z,7.00
2023-11-24T04:56:40.318Z,7.00
2023-11-24T04:59:07.085Z,6.90
2023-11-24T05:01:33.917Z,6.90
2023-11-24T05:04:01.445Z,6.90
2023-11-24T05:06:28.311Z,6.90
2023-11-24T05:08:55.137Z,7.00
2023-11-24T05:11:22.571Z,7.00
2023-11-24T05:13:50.358Z,7.00
2023-11-24T05:16:17.785Z,6.90
2023-11-24T05:18:44.779Z,6.90
2023-11-24T05:21:11.570Z,6.80
2023-11-24T05:23:38.337Z,6.80
2023-11-24T05:26:05.237Z,6.70
2023-11-24T05:28:31.952Z,6.60
2023-11-24T05:30:59.365Z,6.60
2023-11-24T05:33:26.117Z,6.60
2023-11-24T05:35:52.789Z,6.60
2023-11-24T05:38:20.449Z,6.50
2023-11-24T05:40:47.677Z,6.50
2023-11-24T05:43:14.589Z,6.50
2023-11-24T05:45:41.343Z,6.50
2023-11-24T05:48:08.139Z,6.50
2023-11-24T05:50:34.847Z,6.50
2023-11-24T05:53:01.638Z,6.40
2023-11-24T05:55:28.352Z,6.40
2023-11-24T05:57:55.086Z,6.30
2023-11-24T06:00:21.874Z,6.30
2023-11-24T06:02:48.696Z,6.30
2023-11-24T06:05:16.796Z,6.20
2023-11-24T06:07:43.856Z,6.10
2023-11-24T06:10:10.952Z,6.10
2023-11-24T06:12:38.378Z,6.00
2023-11-24T06:15:05.986Z,6.00
2023-11-24T06:17:33.072Z,6.00
2023-11-24T06:19:59.865Z,6.00
2023-11-24T06:22:26.541Z,5.90
2023-11-24T06:24:54.745Z,5.80
2023-11-24T06:27:21.659Z,5.80
2023-11-24T06:29:48.952Z,5.90
2023-11-24T06:32:15.706Z,5.90
2023-11-24T06:34:42.985Z,5.90
2023-11-24T06:37:09.843Z,5.70
2023-11-24T06:39:36.817Z,5.80
2023-11-24T06:42:05.636Z,5.80
2023-11-24T06:44:32.668Z,5.80
2023-11-24T06:47:01.225Z,5.70
2023-11-24T06:49:30.621Z,5.70
2023-11-24T06:51:57.883Z,5.70
2023-11-24T06:54:24.692Z,5.70
2023-11-24T06:56:51.552Z,5.80
2023-11-24T06:59:18.673Z,5.70
2023-11-24T07:01:45.778Z,5.80
2023-11-24T07:04:12.839Z,5.90
2023-11-24T07:06:40.444Z,5.90
2023-11-24T07:09:09.121Z,5.80
2023-11-24T07:11:37.863Z,5.80
2023-11-24T07:14:04.744Z,5.90
2023-11-24T07:16:31.725Z,5.90
2023-11-24T07:18:59.358Z,5.90
2023-11-24T07:21:26.586Z,5.90
2023-11-24T07:23:53.372Z,6.00
2023-11-24T07:26:20.566Z,6.00
2023-11-24T07:28:47.276Z,6.00
2023-11-24T07:31:21.292Z,6.10
2023-11-24T07:33:50.950Z,6.10
2023-11-24T07:36:20.076Z,6.10
2023-11-24T07:38:47.182Z,6.10
2023-11-24T07:41:13.989Z,6.20
2023-11-24T07:43:40.747Z,6.20
2023-11-24T07:46:11.846Z,6.20
2023-11-24T07:48:38.982Z,6.30
2023-11-24T07:51:07.025Z,6.30
2023-11-24T07:53:34.725Z,6.40
2023-11-24T07:56:01.847Z,6.40
2023-11-24T07:58:31.338Z,6.40
2023-11-24T08:00:58.262Z,6.50
2023-11-24T08:03:25.626Z,6.50
2023-11-24T08:05:53.641Z,6.50
2023-11-24T08:08:21.285Z,6.50
2023-11-24T08:10:48.192Z,6.50
2023-11-24T08:13:15.188Z,6.60
2023-11-24T08:15:42.115Z,6.60
2023-11-24T08:18:08.986Z,6.60
2023-11-24T08:20:35.733Z,6.60
2023-11-24T08:23:02.474Z,6.60
2023-11-24T08:25:29.178Z,6.60
2023-11-24T08:27:55.907Z,6.60
2023-11-24T08:30:22.662Z,6.60
2023-11-24T08:32:50.532Z,6.70
2023-11-24T08:35:17.540Z,6.70
2023-11-24T08:37:44.578Z,6.80
2023-11-24T08:40:12.201Z,6.70
2023-11-24T08:42:39.864Z,6.70
2023-11-24T08:45:07.827Z,6.80
2023-11-24T08:47:34.575Z,6.80
2023-11-24T08:50:01.554Z,6.80
2023-11-24T08:52:28.217Z,6.80
2023-11-24T08:54:55.320Z,6.80
2023-11-24T08:57:22.037Z,6.80
2023-11-24T08:59:48.819Z,6.70
2023-11-24T09:02:15.777Z,6.70
2023-11-24T09:04:42.638Z,6.70
2023-11-24T09:07:10.245Z,6.60
2023-11-24T09:09:38.257Z,6.50
2023-11-24T09:14:39.422Z,6.30
2023-11-24T09:17:06.253Z,6.10
2023-11-24T09:19:33.353Z,6.00
2023-11-24T09:22:01.453Z,5.80
2023-11-24T09:24:28.744Z,5.70
2023-11-24T09:26:56.302Z,5.60
2023-11-24T09:29:24.290Z,5.50
2023-11-24T09:31:51.007Z,5.60
2023-11-24T09:34:17.877Z,5.60
2023-11-24T09:36:46.638Z,5.70
2023-11-24T09:39:18.368Z,5.70
2023-11-24T09:41:52.342Z,5.80
2023-11-24T09:44:19.691Z,5.80
2023-11-24T09:46:51.974Z,5.80
2023-11-24T09:49:21.507Z,6.00
2023-11-24T09:51:48.316Z,6.10
2023-11-24T09:54:15.928Z,6.20
2023-11-24T09:56:44.735Z,6.20
2023-11-24T09:59:11.667Z,6.20
2023-11-24T10:01:38.609Z,6.20
2023-11-24T10:04:07.090Z,6.10
2023-11-24T10:06:36.135Z,6.10
2023-11-24T10:09:11.767Z,6.20
2023-11-24T10:11:40.473Z,6.40
2023-11-24T10:14:13.658Z,6.50
2023-11-24T10:16:41.993Z,6.60
2023-11-24T10:19:18.429Z,6.70
2023-11-24T10:21:47.842Z,6.70
2023-11-24T10:24:14.694Z,6.70
2023-11-24T10:26:43.397Z,6.70
2023-11-24T10:29:10.596Z,6.60
2023-11-24T10:31:38.045Z,6.60
2023-11-24T10:34:06.382Z,6.70
2023-11-24T10:36:35.983Z,6.80
2023-11-24T10:39:07.956Z,6.80
2023-11-24T10:41:42.413Z,6.80
2023-11-24T10:44:13.338Z,6.90
2023-11-24T10:46:45.184Z,7.10
2023-11-24T10:49:18.238Z,7.20
2023-11-24T10:51:55.779Z,7.20
2023-11-24T10:54:40.184Z,7.20
2023-11-24T10:57:07.571Z,7.00
2023-11-24T10:59:35.951Z,6.90
2023-11-24T11:02:07.913Z,7.00
2023-11-24T11:04:36.861Z,6.90
2023-11-24T11:07:15.899Z,6.90
2023-11-24T11:09:50.636Z,7.20
2023-11-24T11:12:50.082Z,7.30
2023-11-24T11:15:18.963Z,7.30
2023-11-24T11:17:48.738Z,7.30
2023-11-24T11:20:23.745Z,7.30
2023-11-24T11:23:00.795Z,7.20
2023-11-24T11:25:38.043Z,7.00
2023-11-24T11:28:25.049Z,7.10
2023-11-24T11:31:23.881Z,7.10
2023-11-24T11:33:51.097Z,7.20
2023-11-24T11:36:20.855Z,7.30
2023-11-24T11:38:54.437Z,7.60
2023-11-24T11:41:41.950Z,7.70
2023-11-24T11:44:19.201Z,7.60
2023-11-24T11:47:14.292Z,7.70
2023-11-24T11:49:41.846Z,7.90
2023-11-24T11:52:12.266Z,8.00
2023-11-24T11:54:40.860Z,8.00
2023-11-24T11:57:08.500Z,8.10
2023-11-24T11:59:35.978Z,8.10
2023-11-24T12:02:03.463Z,8.10
2023-11-24T12:04:31.496Z,8.10
2023-11-24T12:06:58.361Z,8.10
2023-11-24T12:09:26.494Z,8.10
2023-11-24T12:11:53.311Z,8.00
2023-11-24T12:14:21.300Z,8.00
2023-11-24T12:16:48.302Z,7.90
2023-11-24T12:19:16.461Z,7.80
2023-11-24T12:21:43.618Z,7.90
2023-11-24T12:24:57.283Z,8.00
2023-11-24T16:06:20.829Z,4.20
2023-11-24T16:08:55.572Z,4.20
2023-11-24T16:11:29.898Z,4.20
2023-11-24T16:14:00.338Z,4.10
2023-11-24T16:16:28.368Z,4.10
2023-11-24T16:18:55.636Z,4.10
2023-11-24T16:21:23.714Z,4.20
2023-11-24T16:23:50.625Z,4.10
2023-11-24T16:26:17.331Z,4.20
2023-11-24T16:28:44.807Z,4.10
2023-11-24T16:31:13.370Z,4.10
2023-11-24T16:33:41.951Z,4.10
2023-11-24T16:36:10.801Z,4.10
2023-11-24T16:38:40.241Z,4.20
2023-11-24T16:41:07.198Z,4.20
2023-11-24T16:43:34.259Z,4.20
2023-11-24T16:46:01.143Z,4.20
2023-11-24T16:48:28.009Z,4.10
2023-11-24T16:50:54.723Z,4.10
2023-11-24T16:53:21.413Z,4.10
2023-11-24T16:55:48.480Z,4.10
2023-11-24T16:58:15.466Z,4.00
2023-11-24T17:00:42.889Z,4.10
2023-11-24T17:03:11.862Z,4.10
2023-11-24T17:05:39.485Z,4.10
2023-11-24T17:08:07.885Z,4.20
2023-11-24T17:10:35.310Z,4.10
2023-11-24T17:13:03.112Z,4.10
2023-11-24T17:15:30.046Z,4.10
2023-11-24T17:17:58.095Z,4.10
2023-11-24T17:20:27.149Z,4.10
2023-11-24T17:22:54.569Z,4.10
2023-11-24T17:25:32.111Z,4.20
2023-11-24T17:28:03.799Z,4.20
2023-11-24T17:30:30.664Z,4.10
2023-11-24T17:32:57.539Z,4.20
2023-11-24T17:35:24.898Z,4.20
2023-11-24T17:37:52.326Z,4.20
2023-11-24T17:40:22.858Z,4.20
2023-11-24T17:42:50.235Z,4.20
2023-11-24T17:45:17.338Z,4.20
2023-11-24T17:47:46.899Z,4.30
2023-11-24T17:50:15.159Z,4.30
2023-11-24T17:52:43.746Z,4.30
2023-11-24T17:55:10.842Z,4.30
2023-11-24T17:57:38.204Z,4.30
2023-11-24T18:00:09.776Z,4.30
2023-11-24T18:02:36.705Z,4.40
2023-11-24T18:05:03.694Z,4.30
2023-11-24T18:07:30.396Z,4.30
2023-11-24T18:09:57.154Z,4.30
2023-11-24T18:12:23.944Z,4.30
2023-11-24T18:14:50.694Z,4.40
2023-11-24T18:17:17.461Z,4.40
2023-11-24T18:19:44.276Z,4.40
2023-11-24T18:22:11.083Z,4.40
2023-11-24T18:24:37.878Z,4.40
2023-11-24T18:27:05.121Z,4.40
2023-11-24T18:29:31.845Z,4.40
2023-11-24T18:31:58.681Z,4.40
2023-11-24T18:34:28.994Z,4.40
2023-11-24T18:36:58.721Z,4.40
2023-11-24T18:39:28.428Z,4.40
2023-11-24T18:41:55.407Z,4.40
2023-11-24T18:44:22.155Z,4.40
2023-11-24T18:46:51.750Z,4.40
2023-11-24T18:49:18.669Z,4.40
2023-11-24T18:51:45.400Z,4.40
2023-11-24T18:54:12.374Z,4.40
2023-11-24T18:56:39.306Z,4.40
2023-11-24T18:59:06.709Z,4.40
2023-11-24T19:01:34.069Z,4.40
2023-11-24T19:04:02.202Z,4.50
2023-11-24T19:06:29.850Z,4.50
2023-11-24T19:08:56.887Z,4.50
2023-11-24T19:11:27.074Z,4.60
2023-11-24T19:13:53.944Z,4.60
2023-11-24T19:16:21.235Z,4.60
2023-11-24T19:18:47.939Z,4.60
2023-11-24T19:21:14.921Z,4.60
2023-11-24T19:23:41.620Z,4.60
2023-11-24T19:26:15.519Z,4.60
2023-11-24T19:28:55.864Z,4.60
2023-11-24T19:31:29.930Z,4.60
2023-11-24T19:33:58.658Z,4.60
2023-11-24T19:36:26.464Z,4.60
2023-11-24T19:38:53.291Z,4.60
2023-11-24T19:41:20.066Z,4.60
2023-11-24T19:43:49.747Z,4.60
2023-11-24T19:46:16.700Z,4.60
2023-11-24T19:48:43.446Z,4.60
2023-11-24T19:51:10.249Z,4.60
2023-11-24T19:53:36.993Z,4.60
2023-11-24T19:56:05.113Z,4.50
2023-11-24T19:58:32.008Z,4.50
2023-11-24T20:01:00.080Z,4.50
2023-11-24T20:03:26.968Z,4.50
2023-11-24T20:05:53.866Z,4.50
2023-11-24T20:08:20.813Z,4.50
2023-11-24T20:10:47.561Z,4.40
2023-11-24T20:13:14.428Z,4.50
2023-11-24T20:15:42.061Z,4.50
2023-11-24T20:18:09.882Z,4.50
2023-11-24T20:20:39.717Z,4.50
2023-11-24T20:23:09.867Z,4.50
2023-11-24T20:25:36.685Z,4.40
2023-11-24T20:28:04.412Z,4.40
2023-11-24T20:30:31.138Z,4.40
2023-11-24T20:32:57.892Z,4.40
2023-11-24T20:35:24.928Z,4.40
2023-11-24T20:37:52.718Z,4.40
2023-11-24T20:40:22.570Z,4.40
2023-11-24T20:42:49.327Z,4.40
2023-11-24T20:45:16.063Z,4.50
2023-11-24T20:47:43.233Z,4.50
2023-11-24T20:50:11.403Z,4.40
2023-11-24T20:52:38.504Z,4.40
2023-11-24T20:55:05.963Z,4.50
2023-11-24T20:57:32.733Z,4.50
2023-11-24T20:59:59.501Z,4.50
2023-11-24T21:02:27.246Z,4.50
2023-11-24T21:04:54.167Z,4.50
2023-11-24T21:07:20.969Z,4.50
2023-11-24T21:09:49.199Z,4.50
2023-11-24T21:12:15.927Z,4.50
2023-11-24T21:14:42.790Z,4.50
2023-11-24T21:17:09.865Z,4.50
2023-11-24T21:19:37.532Z,4.50
2023-11-24T21:22:05.059Z,4.50
2023-11-24T21:24:31.873Z,4.60
2023-11-24T21:26:58.688Z,4.60
2023-11-24T21:29:25.450Z,4.60
2023-11-24T21:31:52.295Z,4.60
2023-11-24T21:34:19.017Z,4.70
2023-11-24T21:36:45.737Z,4.60
2023-11-24T21:39:15.251Z,4.60
2023-11-24T21:41:42.744Z,4.60
2023-11-24T21:44:11.019Z,4.60
2023-11-24T21:46:37.904Z,4.60
2023-11-24T21:49:04.868Z,4.70
2023-11-24T21:51:31.679Z,4.70
2023-11-24T21:53:58.436Z,4.70
2023-11-24T21:56:31.080Z,4.70
2023-11-24T21:58:57.866Z,4.70
2023-11-24T22:01:25.454Z,4.70
2023-11-24T22:03:53.482Z,4.80
2023-11-24T22:06:25.534Z,4.80
2023-11-24T22:08:53.250Z,4.80
2023-11-24T22:11:20.037Z,4.70
2023-11-24T22:13:46.798Z,4.80
2023-11-24T22:16:13.644Z,4.70
2023-11-24T22:18:40.476Z,4.70
2023-11-24T22:21:08.949Z,4.60
2023-11-24T22:23:39.510Z,4.60
2023-11-24T22:26:06.612Z,4.60
2023-11-24T22:28:33.792Z,4.60
2023-11-24T22:31:01.107Z,4.60
2023-11-24T22:33:29.797Z,4.50
2023-11-24T22:35:56.974Z,4.50
2023-11-24T22:38:24.350Z,4.40
2023-11-24T22:40:51.782Z,4.40
2023-11-24T22:43:19.281Z,4.40
2023-11-24T22:45:47.347Z,4.30
2023-11-24T22:48:14.308Z,4.40
2023-11-24T22:50:41.908Z,4.40
2023-11-24T22:53:08.673Z,4.40
2023-11-24T22:55:35.515Z,4.40
2023-11-24T22:58:04.966Z,4.40
2023-11-24T23:00:41.070Z,4.40
2023-11-24T23:03:09.554Z,4.40
2023-11-24T23:05:37.039Z,4.40
2023-11-24T23:08:05.241Z,4.40
2023-11-24T23:10:32.119Z,4.40
2023-11-24T23:13:00.842Z,4.40
2023-11-24T23:15:28.460Z,4.40
2023-11-24T23:17:58.775Z,4.40
2023-11-24T23:20:26.536Z,4.40
2023-11-24T23:22:53.977Z,4.40
2023-11-24T23:25:24.190Z,4.30
2023-11-24T23:27:51.041Z,4.30
2023-11-24T23:30:19.033Z,4.30
2023-11-24T23:32:46.112Z,4.30
2023-11-24T23:35:13.395Z,4.30
2023-11-24T23:37:44.548Z,4.30
2023-11-24T23:40:15.518Z,4.10
2023-11-24T23:42:45.767Z,4.10
2023-11-24T23:45:13.644Z,4.10
2023-11-24T23:48:02.322Z,4.10
2023-11-24T23:50:31.179Z,4.10
2023-11-24T23:52:58.256Z,4.10
2023-11-24T23:55:26.210Z,4.00
2023-11-24T23:57:53.119Z,4.00
